createdAt,value
2023-02-03T00:01:13.133Z,6.00
2023-02-03T00:03:16.565Z,5.83
2023-02-03T00:05:20.009Z,6.60
2023-02-03T00:07:23.404Z,5.53
2023-02-03T00:09:26.893Z,6.07
2023-02-03T00:11:33.268Z,5.63
2023-02-03T00:13:37.275Z,6.20
2023-02-03T00:15:42.047Z,6.87
2023-02-03T00:17:45.379Z,5.17
2023-02-03T00:19:50.093Z,5.30
2023-02-03T00:21:53.413Z,4.93
2023-02-03T00:23:56.703Z,5.73
2023-02-03T00:26:07.172Z,5.67
2023-02-03T00:28:10.623Z,4.60
2023-02-03T00:30:14.519Z,5.60
2023-02-03T00:32:20.071Z,9.50
2023-02-03T00:34:23.849Z,5.40
2023-02-03T00:36:27.292Z,5.20
2023-02-03T00:38:30.817Z,4.73
2023-02-03T00:40:34.267Z,4.57
2023-02-03T00:42:38.268Z,5.20
2023-02-03T00:44:41.616Z,4.87
2023-02-03T00:46:44.957Z,5.00
2023-02-03T00:48:49.848Z,5.33
2023-02-03T00:50:53.259Z,4.53
2023-02-03T00:52:56.593Z,5.00
2023-02-03T00:55:00.006Z,4.87
2023-02-03T00:57:03.297Z,4.30
2023-02-03T00:59:06.901Z,8.90
2023-02-03T01:01:10.992Z,5.83
2023-02-03T01:03:14.484Z,5.27
2023-02-03T01:05:19.309Z,5.07
2023-02-03T01:07:23.144Z,4.40
2023-02-03T01:09:27.256Z,4.97
2023-02-03T01:11:30.896Z,4.73
2023-02-03T01:13:34.307Z,4.07
2023-02-03T01:15:37.784Z,4.20
2023-02-03T01:17:41.277Z,4.50
2023-02-03T01:19:44.565Z,4.30
2023-02-03T01:21:49.309Z,4.07
2023-02-03T01:23:53.398Z,5.07
2023-02-03T01:25:56.757Z,7.30
2023-02-03T01:28:00.109Z,6.30
2023-02-03T01:30:03.491Z,4.10
2023-02-03T01:32:06.940Z,4.20
2023-02-03T01:34:14.327Z,4.47
2023-02-03T01:36:18.837Z,3.53
2023-02-03T01:38:23.534Z,3.57
2023-02-03T01:40:27.204Z,4.30
2023-02-03T01:42:34.514Z,4.40
2023-02-03T01:44:49.382Z,4.40
2023-02-03T01:46:53.537Z,4.10
2023-02-03T01:49:04.108Z,4.33
2023-02-03T01:51:08.200Z,5.43
2023-02-03T01:53:12.948Z,4.57
2023-02-03T01:55:20.750Z,4.20
2023-02-03T01:57:28.285Z,5.00
2023-02-03T01:59:34.391Z,11.07
2023-02-03T02:01:38.150Z,3.33
2023-02-03T02:03:47.480Z,4.10
2023-02-03T02:05:56.185Z,3.70
2023-02-03T02:08:01.102Z,4.30
2023-02-03T02:10:05.554Z,3.13
2023-02-03T02:12:11.762Z,4.17
2023-02-03T02:14:15.144Z,4.00
2023-02-03T02:16:25.559Z,3.43
2023-02-03T02:18:44.055Z,2.80
2023-02-03T02:21:12.674Z,4.10
2023-02-03T02:23:48.364Z,3.07
2023-02-03T02:26:26.775Z,3.10
2023-02-03T02:28:58.189Z,4.57
2023-02-03T02:31:37.305Z,3.23
2023-02-03T02:33:45.138Z,5.67
2023-02-03T02:35:59.199Z,3.40
2023-02-03T02:38:06.339Z,3.30
2023-02-03T02:40:21.444Z,3.07
2023-02-03T02:42:31.192Z,3.53
2023-02-03T02:44:40.424Z,4.17
2023-02-03T02:46:49.562Z,3.13
2023-02-03T02:49:00.662Z,4.07
2023-02-03T02:51:07.808Z,3.07
2023-02-03T02:53:14.268Z,3.20
2023-02-03T02:55:24.598Z,3.13
2023-02-03T02:57:32.373Z,3.73
2023-02-03T02:59:36.843Z,3.03
2023-02-03T03:01:41.237Z,3.03
2023-02-03T03:03:49.407Z,3.60
2023-02-03T03:05:56.523Z,3.40
2023-02-03T03:08:04.824Z,3.07
2023-02-03T03:10:14.685Z,3.17
2023-02-03T03:12:22.836Z,3.20
2023-02-03T03:14:31.461Z,2.97
2023-02-03T03:16:38.039Z,3.80
2023-02-03T03:18:45.344Z,2.97
2023-02-03T03:20:52.598Z,3.00
2023-02-03T03:23:00.481Z,3.40
2023-02-03T03:25:10.889Z,3.40
2023-02-03T03:27:19.464Z,3.40
2023-02-03T03:29:26.665Z,3.40
2023-02-03T03:31:30.163Z,3.87
2023-02-03T03:33:33.744Z,4.70
2023-02-03T03:35:43.625Z,3.43
2023-02-03T03:37:57.058Z,3.93
2023-02-03T03:40:03.452Z,3.80
2023-02-03T03:42:12.792Z,3.57
2023-02-03T03:44:20.235Z,3.90
2023-02-03T03:46:28.835Z,3.70
2023-02-03T03:48:37.845Z,3.70
2023-02-03T03:50:45.122Z,4.07
2023-02-03T03:52:51.835Z,3.73
2023-02-03T03:54:57.553Z,3.70
2023-02-03T03:57:06.355Z,3.53
2023-02-03T03:59:12.380Z,3.77
2023-02-03T04:01:17.455Z,3.40
2023-02-03T04:03:25.446Z,4.97
2023-02-03T04:05:29.958Z,4.07
2023-02-03T04:07:39.993Z,4.63
2023-02-03T04:09:44.709Z,3.80
2023-02-03T04:12:02.076Z,4.40
2023-02-03T04:14:05.445Z,4.27
2023-02-03T04:16:09.970Z,4.23
2023-02-03T04:18:14.826Z,3.80
2023-02-03T04:20:18.526Z,5.60
2023-02-03T04:22:23.100Z,3.80
2023-02-03T04:24:26.426Z,3.60
2023-02-03T04:26:31.111Z,3.63
2023-02-03T04:28:34.412Z,3.23
2023-02-03T04:30:37.752Z,3.70
2023-02-03T04:32:41.531Z,4.10
2023-02-03T04:34:44.844Z,3.63
2023-02-03T04:36:48.252Z,4.57
2023-02-03T04:38:51.904Z,3.60
2023-02-03T04:40:55.207Z,6.10
2023-02-03T04:42:59.924Z,3.00
2023-02-03T04:45:03.277Z,3.60
2023-02-03T04:47:06.670Z,3.00
2023-02-03T04:49:11.654Z,3.30
2023-02-03T04:51:15.026Z,2.43
2023-02-03T04:53:18.355Z,3.07
2023-02-03T04:55:21.657Z,3.17
2023-02-03T04:57:25.002Z,3.13
2023-02-03T04:59:29.834Z,4.13
2023-02-03T05:01:33.241Z,5.50
2023-02-03T05:03:36.728Z,3.57
2023-02-03T05:05:40.191Z,4.43
2023-02-03T05:07:43.588Z,3.70
2023-02-03T05:09:46.929Z,4.20
2023-02-03T05:11:50.304Z,3.57
2023-02-03T05:13:54.226Z,6.83
2023-02-03T05:15:58.906Z,6.00
2023-02-03T05:18:02.198Z,4.03
2023-02-03T05:20:06.504Z,3.43
2023-02-03T05:22:09.801Z,3.60
2023-02-03T05:24:13.245Z,3.90
2023-02-03T05:26:16.582Z,6.93
2023-02-03T05:28:20.835Z,7.23
2023-02-03T05:30:24.184Z,4.00
2023-02-03T05:32:28.909Z,13.83
2023-02-03T05:34:32.416Z,26.80
2023-02-03T05:36:35.814Z,3.73
2023-02-03T05:38:39.136Z,5.20
2023-02-03T05:40:59.950Z,4.20
2023-02-03T05:43:03.257Z,4.23
2023-02-03T05:45:07.406Z,3.10
2023-02-03T05:47:10.943Z,3.13
2023-02-03T05:49:16.231Z,4.20
2023-02-03T05:51:19.564Z,14.33
2023-02-03T05:53:23.066Z,3.30
2023-02-03T05:55:26.455Z,11.60
2023-02-03T05:57:32.133Z,3.20
2023-02-03T05:59:35.601Z,2.23
2023-02-03T06:01:39.205Z,2.13
2023-02-03T06:03:46.039Z,49.83
2023-02-03T06:05:53.832Z,1.83
2023-02-03T06:07:57.238Z,3.57
2023-02-03T06:10:00.564Z,2.83
2023-02-03T06:12:04.005Z,1.90
2023-02-03T06:14:07.398Z,4.80
2023-02-03T06:16:11.006Z,5.40
2023-02-03T06:18:14.414Z,3.43
2023-02-03T06:20:21.047Z,2.60
2023-02-03T06:22:25.777Z,2.13
2023-02-03T06:24:29.882Z,2.70
2023-02-03T06:26:33.224Z,1.87
2023-02-03T06:28:38.143Z,2.07
2023-02-03T06:30:41.566Z,1.80
2023-02-03T06:32:45.249Z,2.70
2023-02-03T06:34:48.678Z,2.60
2023-02-03T06:36:51.940Z,1.70
2023-02-03T06:38:56.717Z,1.73
2023-02-03T06:41:00.124Z,2.33
2023-02-03T06:43:03.486Z,2.03
2023-02-03T06:45:08.274Z,1.67
2023-02-03T06:47:11.574Z,10.00
2023-02-03T06:49:14.999Z,2.13
2023-02-03T06:51:18.429Z,2.23
2023-02-03T06:53:21.746Z,2.27
2023-02-03T06:55:26.481Z,1.80
2023-02-03T06:57:29.863Z,2.90
2023-02-03T06:59:33.345Z,2.20
2023-02-03T07:01:36.896Z,1.60
2023-02-03T07:03:40.489Z,9.13
2023-02-03T07:05:43.848Z,2.33
2023-02-03T07:07:47.184Z,2.03
2023-02-03T07:09:50.589Z,2.93
2023-02-03T07:11:55.275Z,2.60
2023-02-03T07:13:58.723Z,1.97
2023-02-03T07:16:02.113Z,2.10
2023-02-03T07:18:05.737Z,1.60
2023-02-03T07:20:09.896Z,1.40
2023-02-03T07:22:13.260Z,2.20
2023-02-03T07:24:16.780Z,1.50
2023-02-03T07:26:22.902Z,1.80
2023-02-03T07:28:27.841Z,2.70
2023-02-03T07:30:31.441Z,2.43
2023-02-03T07:32:34.885Z,1.80
2023-02-03T07:34:38.160Z,1.60
2023-02-03T07:36:41.622Z,4.77
2023-02-03T07:38:44.960Z,1.93
2023-02-03T07:40:48.363Z,1.70
2023-02-03T07:42:51.681Z,2.63
2023-02-03T07:44:56.360Z,3.07
2023-02-03T07:46:59.886Z,3.37
2023-02-03T07:49:05.716Z,3.63
2023-02-03T07:51:09.151Z,2.33
2023-02-03T07:53:12.619Z,2.60
2023-02-03T07:55:16.065Z,2.70
2023-02-03T07:57:19.485Z,2.03
2023-02-03T07:59:22.854Z,1.43
2023-02-03T08:01:28.738Z,2.63
2023-02-03T08:03:32.061Z,1.80
2023-02-03T08:05:35.616Z,2.83
2023-02-03T08:07:39.209Z,2.20
2023-02-03T08:09:42.581Z,2.00
2023-02-03T08:11:45.950Z,1.90
2023-02-03T08:13:50.245Z,2.00
2023-02-03T08:15:53.806Z,3.43
2023-02-03T08:17:58.567Z,4.03
2023-02-03T08:20:02.041Z,2.60
2023-02-03T08:22:05.446Z,4.20
2023-02-03T08:24:09.075Z,10.10
2023-02-03T08:26:12.569Z,3.20
2023-02-03T08:28:15.964Z,3.47
2023-02-03T08:30:19.592Z,3.60
2023-02-03T08:32:24.951Z,2.27
2023-02-03T08:34:30.029Z,2.00
2023-02-03T08:36:33.361Z,2.70
2023-02-03T08:38:36.745Z,2.03
2023-02-03T08:40:40.122Z,2.13
2023-02-03T08:42:44.822Z,2.50
2023-02-03T08:44:49.230Z,2.47
2023-02-03T08:46:53.390Z,2.23
2023-02-03T08:48:57.564Z,2.20
2023-02-03T08:51:02.359Z,2.23
2023-02-03T08:53:06.098Z,1.57
2023-02-03T08:55:09.776Z,3.13
2023-02-03T08:57:13.091Z,2.53
2023-02-03T08:59:16.485Z,2.77
2023-02-03T09:01:20.010Z,2.10
2023-02-03T09:03:23.467Z,2.10
2023-02-03T09:05:26.850Z,2.17
2023-02-03T09:07:31.621Z,3.07
2023-02-03T09:09:34.947Z,3.17
2023-02-03T09:11:38.602Z,2.00
2023-02-03T09:13:45.776Z,3.73
2023-02-03T09:15:49.127Z,3.27
2023-02-03T09:17:53.660Z,3.70
2023-02-03T09:19:57.063Z,3.10
2023-02-03T09:22:00.612Z,2.90
2023-02-03T09:24:06.039Z,2.87
2023-02-03T09:26:11.552Z,3.07
2023-02-03T09:28:14.927Z,2.47
2023-02-03T09:30:18.955Z,2.10
2023-02-03T09:32:22.312Z,2.30
2023-02-03T09:34:25.660Z,2.40
2023-02-03T09:36:29.156Z,3.20
2023-02-03T09:38:33.959Z,2.80
2023-02-03T09:40:40.629Z,2.63
2023-02-03T09:42:59.796Z,2.90
2023-02-03T09:45:15.767Z,2.80
2023-02-03T09:47:26.159Z,3.17
2023-02-03T09:49:38.624Z,4.27
2023-02-03T09:51:46.653Z,2.60
2023-02-03T09:53:55.319Z,3.30
2023-02-03T09:56:00.900Z,4.37
2023-02-03T09:58:07.403Z,4.77
2023-02-03T10:00:20.667Z,4.63
2023-02-03T10:02:36.967Z,5.47
2023-02-03T10:04:45.575Z,3.17
2023-02-03T10:06:49.172Z,3.70
2023-02-03T10:09:20.635Z,3.63
2023-02-03T10:11:36.966Z,3.30
2023-02-03T10:13:57.948Z,3.17
2023-02-03T10:16:16.958Z,3.27
2023-02-03T10:18:25.150Z,3.90
2023-02-03T10:20:36.809Z,5.53
2023-02-03T10:22:44.174Z,3.40
2023-02-03T10:24:53.802Z,4.57
2023-02-03T10:26:59.092Z,42.07
2023-02-03T10:29:08.974Z,5.40
2023-02-03T10:31:18.096Z,3.90
2023-02-03T10:33:22.130Z,3.70
2023-02-03T10:35:36.605Z,3.80
2023-02-03T10:37:44.829Z,6.30
2023-02-03T10:39:50.393Z,4.70
2023-02-03T10:41:54.841Z,5.00
2023-02-03T10:44:03.117Z,5.90
2023-02-03T10:46:06.482Z,6.37
2023-02-03T10:48:16.913Z,5.97
2023-02-03T10:50:22.918Z,6.73
2023-02-03T10:52:32.238Z,5.30
2023-02-03T10:54:38.237Z,6.70
2023-02-03T10:56:42.074Z,6.77
2023-02-03T10:58:50.574Z,9.27
2023-02-03T11:00:59.982Z,130.97
2023-02-03T11:03:08.001Z,51.67
2023-02-03T11:05:20.845Z,227.40
2023-02-03T11:07:27.066Z,246.10
2023-02-03T11:09:34.664Z,6.50
2023-02-03T11:11:41.648Z,5.17
2023-02-03T11:13:44.996Z,4.40
2023-02-03T11:15:58.757Z,5.43
2023-02-03T11:18:02.140Z,5.47
2023-02-03T11:20:15.314Z,5.50
2023-02-03T11:22:29.788Z,6.47
2023-02-03T11:24:35.011Z,6.10
2023-02-03T11:26:43.642Z,6.30
2023-02-03T11:28:49.600Z,6.00
2023-02-03T11:30:57.390Z,6.80
2023-02-03T11:33:03.751Z,5.73
2023-02-03T11:35:18.594Z,6.83
2023-02-03T11:37:32.238Z,6.30
2023-02-03T11:39:35.827Z,5.20
2023-02-03T11:41:40.616Z,5.80
2023-02-03T11:43:43.991Z,6.50
2023-02-03T11:45:51.213Z,8.10
2023-02-03T11:47:57.694Z,7.90
2023-02-03T11:50:31.107Z,8.43
2023-02-03T11:52:56.123Z,7.87
2023-02-03T11:55:09.060Z,7.33
2023-02-03T11:57:26.944Z,7.00
2023-02-03T11:59:45.465Z,8.30
2023-02-03T12:02:25.507Z,8.60
2023-02-03T12:05:01.040Z,8.50
2023-02-03T12:07:31.419Z,8.57
2023-02-03T12:09:47.708Z,8.97
2023-02-03T12:12:22.128Z,9.17
2023-02-03T12:14:40.020Z,9.70
2023-02-03T12:17:05.531Z,8.73
2023-02-03T12:19:19.883Z,36.20
2023-02-03T12:21:43.749Z,115.07
2023-02-03T12:23:54.633Z,99.30
2023-02-03T12:26:13.813Z,67.27
2023-02-03T12:28:33.590Z,10.90
2023-02-03T12:30:42.461Z,10.17
2023-02-03T12:32:52.563Z,7.83
2023-02-03T12:35:00.958Z,7.40
2023-02-03T12:37:09.475Z,8.33
2023-02-03T12:39:20.514Z,8.57
2023-02-03T12:41:27.988Z,8.50
2023-02-03T12:43:37.937Z,7.70
2023-02-03T12:45:41.869Z,7.60
2023-02-03T12:47:50.967Z,8.40
2023-02-03T12:49:57.669Z,8.13
2023-02-03T12:52:06.236Z,9.30
2023-02-03T12:54:20.367Z,7.90
2023-02-03T12:56:28.764Z,8.13
2023-02-03T12:58:38.071Z,8.77
2023-02-03T13:00:46.937Z,6.77
2023-02-03T13:03:03.323Z,7.70
2023-02-03T13:05:18.437Z,6.83
2023-02-03T13:07:28.568Z,75.73
2023-02-03T13:09:40.639Z,7.33
2023-02-03T13:11:49.744Z,7.40
2023-02-03T13:13:56.830Z,8.70
2023-02-03T13:16:03.241Z,8.73
2023-02-03T13:18:15.707Z,367.30
2023-02-03T13:20:21.971Z,101.13
2023-02-03T13:22:26.618Z,34.43
2023-02-03T13:24:31.451Z,124.90
2023-02-03T13:26:56.277Z,139.25
2023-02-03T13:29:21.589Z,347.08
2023-02-03T13:31:38.642Z,271.50
2023-02-03T13:34:12.319Z,362.25
2023-02-03T13:36:41.697Z,294.98
2023-02-03T13:39:21.538Z,367.50
2023-02-03T13:41:36.338Z,301.40
2023-02-03T13:43:46.567Z,309.75
2023-02-03T13:45:53.010Z,320.63
2023-02-03T13:47:59.092Z,329.38
2023-02-03T13:50:06.056Z,344.70
2023-02-03T13:52:25.255Z,364.33
2023-02-03T13:54:39.531Z,289.70
2023-02-03T13:56:45.096Z,312.98
2023-02-03T13:59:03.130Z,331.95
2023-02-03T14:01:29.581Z,273.83
2023-02-03T14:03:44.904Z,293.40
2023-02-03T14:05:50.868Z,288.27
2023-02-03T14:07:54.159Z,268.00
2023-02-03T14:10:15.914Z,320.70
2023-02-03T14:12:59.753Z,306.67
2023-02-03T14:15:23.434Z,302.17
2023-02-03T14:18:05.933Z,296.30
2023-02-03T14:20:54.165Z,366.23
2023-02-03T14:23:02.116Z,396.77
2023-02-03T14:25:07.971Z,425.30
2023-02-03T14:27:19.816Z,418.13
2023-02-03T14:29:29.367Z,399.33
2023-02-03T14:31:54.534Z,373.70
2023-02-03T14:34:15.081Z,289.25
2023-02-03T14:36:35.101Z,335.80
2023-02-03T14:38:38.586Z,275.85
2023-02-03T14:40:49.346Z,285.08
2023-02-03T14:43:21.921Z,335.80
2023-02-03T14:45:44.629Z,328.60
2023-02-03T14:48:02.468Z,380.48
2023-02-03T14:50:18.379Z,368.23
2023-02-03T14:52:39.944Z,369.77
2023-02-03T14:54:59.057Z,351.15
2023-02-03T14:57:19.446Z,354.48
2023-02-03T14:59:27.072Z,355.35
2023-02-03T15:02:12.508Z,337.52
2023-02-03T15:04:25.096Z,344.40
2023-02-03T15:06:40.913Z,350.25
2023-02-03T15:08:46.680Z,364.45
2023-02-03T15:10:50.016Z,326.27
2023-02-03T15:12:54.912Z,329.80
2023-02-03T15:15:19.975Z,363.30
2023-02-03T15:17:25.827Z,338.80
2023-02-03T15:19:35.679Z,382.20
2023-02-03T15:21:43.302Z,364.42
2023-02-03T15:23:49.354Z,375.58
2023-02-03T15:25:57.266Z,347.13
2023-02-03T15:28:12.864Z,394.38
2023-02-03T15:30:17.796Z,403.73
2023-02-03T15:32:29.005Z,361.35
2023-02-03T15:34:39.727Z,385.50
2023-02-03T15:36:48.319Z,380.23
2023-02-03T15:39:18.130Z,432.87
2023-02-03T15:41:24.415Z,366.13
2023-02-03T15:43:32.771Z,387.77
2023-02-03T15:45:42.778Z,369.55
2023-02-03T15:47:51.737Z,341.13
2023-02-03T15:50:06.152Z,384.00
2023-02-03T15:52:18.028Z,362.17
2023-02-03T15:54:30.163Z,368.63
2023-02-03T15:56:37.906Z,400.57
2023-02-03T15:58:47.126Z,379.10
2023-02-03T16:00:53.447Z,348.30
2023-02-03T16:02:59.704Z,357.60
2023-02-03T16:05:06.039Z,344.50
2023-02-03T16:07:19.248Z,340.95
2023-02-03T16:09:33.397Z,331.15
2023-02-03T16:11:39.298Z,342.63
2023-02-03T16:13:45.518Z,340.90
2023-02-03T16:16:05.758Z,335.50
2023-02-03T16:18:17.559Z,335.33
2023-02-03T16:20:29.259Z,355.77
2023-02-03T16:22:38.731Z,350.58
2023-02-03T16:24:45.816Z,331.05
2023-02-03T16:26:49.213Z,347.40
2023-02-03T16:29:30.465Z,340.50
2023-02-03T16:31:51.652Z,330.13
2023-02-03T16:34:12.688Z,343.77
2023-02-03T16:36:34.003Z,296.35
2023-02-03T16:38:55.043Z,315.90
2023-02-03T16:41:17.177Z,304.05
2023-02-03T16:43:38.101Z,291.25
2023-02-03T16:45:59.162Z,318.98
2023-02-03T16:48:21.621Z,287.75
2023-02-03T16:50:43.709Z,290.98
2023-02-03T16:52:47.072Z,311.23
2023-02-03T16:54:50.531Z,268.15
2023-02-03T16:56:58.440Z,268.90
2023-02-03T16:59:02.382Z,281.67
2023-02-03T17:01:07.599Z,290.35
2023-02-03T17:03:13.980Z,310.83
2023-02-03T17:05:18.361Z,295.58
2023-02-03T17:07:21.775Z,295.08
2023-02-03T17:09:25.161Z,284.10
2023-02-03T17:11:28.505Z,301.27
2023-02-03T17:13:33.725Z,310.10
2023-02-03T17:15:40.639Z,306.83
2023-02-03T17:17:44.034Z,303.33
2023-02-03T17:19:47.351Z,298.23
2023-02-03T17:21:51.482Z,288.48
2023-02-03T17:23:55.260Z,294.17
2023-02-03T17:25:58.610Z,320.08
2023-02-03T17:28:02.206Z,308.70
2023-02-03T17:30:07.937Z,299.63
2023-02-03T17:32:15.120Z,323.23
2023-02-03T17:34:18.857Z,288.20
2023-02-03T17:36:22.597Z,291.60
2023-02-03T17:38:25.974Z,308.38
2023-02-03T17:54:37.399Z,292.38
2023-02-03T17:56:40.842Z,283.30
2023-02-03T17:58:44.669Z,298.77
2023-02-03T18:00:49.679Z,289.88
2023-02-03T18:02:53.382Z,297.83
2023-02-03T18:04:56.703Z,280.48
2023-02-03T18:07:00.079Z,293.00
2023-02-03T18:09:04.827Z,285.98
2023-02-03T18:11:08.480Z,285.17
2023-02-03T18:13:11.958Z,288.02
2023-02-03T18:15:15.355Z,313.67
2023-02-03T18:17:20.125Z,285.88
2023-02-03T18:19:23.420Z,301.65
2023-02-03T18:21:27.668Z,324.40
2023-02-03T18:23:31.253Z,305.88
2023-02-03T18:25:36.134Z,309.60
2023-02-03T18:27:39.483Z,311.70
2023-02-03T18:29:44.726Z,336.33
2023-02-03T18:31:48.973Z,317.15
2023-02-03T18:33:54.410Z,333.43
2023-02-03T18:35:58.322Z,326.40
2023-02-03T18:38:01.806Z,362.23
2023-02-03T18:40:05.895Z,319.20
2023-02-03T18:42:09.230Z,179.67
2023-02-03T18:44:12.595Z,216.17
2023-02-03T18:46:19.881Z,141.77
2023-02-03T18:48:23.289Z,290.67
2023-02-03T18:50:28.690Z,281.37
2023-02-03T18:52:32.393Z,269.70
2023-02-03T18:54:36.262Z,204.70
2023-02-03T18:56:39.829Z,122.23
2023-02-03T18:58:46.593Z,83.00
2023-02-03T19:00:50.404Z,164.97
2023-02-03T19:02:54.185Z,215.83
2023-02-03T19:04:57.734Z,206.77
2023-02-03T19:07:02.497Z,10.27
2023-02-03T19:09:06.448Z,49.50
2023-02-03T19:11:09.834Z,145.50
2023-02-03T19:13:13.229Z,196.13
2023-02-03T19:15:16.636Z,179.00
2023-02-03T19:17:20.678Z,163.07
2023-02-03T19:19:24.164Z,320.13
2023-02-03T19:21:27.691Z,343.83
2023-02-03T19:23:32.514Z,319.38
2023-02-03T19:25:36.642Z,333.98
2023-02-03T19:27:40.025Z,316.10
2023-02-03T19:29:43.451Z,330.27
2023-02-03T19:31:46.978Z,305.30
2023-02-03T19:33:50.513Z,306.45
2023-02-03T19:35:53.840Z,329.38
2023-02-03T19:37:57.952Z,313.35
2023-02-03T19:40:02.682Z,295.73
2023-02-03T19:42:06.160Z,283.70
2023-02-03T19:44:09.518Z,301.92
2023-02-03T19:46:14.786Z,290.67
2023-02-03T19:48:21.241Z,302.33
2023-02-03T19:50:24.574Z,335.85
2023-02-03T19:52:27.938Z,309.20
2023-02-03T19:54:31.369Z,337.65
2023-02-03T19:56:36.084Z,310.33
2023-02-03T19:58:39.633Z,315.23
2023-02-03T20:00:43.128Z,310.33
2023-02-03T20:02:46.661Z,303.98
2023-02-03T20:04:50.370Z,307.48
2023-02-03T20:06:53.851Z,310.60
2023-02-03T20:08:57.226Z,307.52
2023-02-03T20:11:01.049Z,313.55
2023-02-03T20:13:05.943Z,312.42
2023-02-03T20:15:09.450Z,87.07
2023-02-03T20:17:12.930Z,115.27
2023-02-03T20:19:16.310Z,128.47
2023-02-03T20:21:19.803Z,326.00
2023-02-03T20:23:23.488Z,121.57
2023-02-03T20:25:27.120Z,351.60
2023-02-03T20:27:30.426Z,341.83
2023-02-03T20:29:35.131Z,325.87
2023-02-03T20:31:38.586Z,335.70
2023-02-03T20:33:42.120Z,323.43
2023-02-03T20:35:45.621Z,345.67
2023-02-03T20:37:49.161Z,343.57
2023-02-03T20:39:52.481Z,325.30
2023-02-03T20:41:56.061Z,235.35
2023-02-03T20:43:59.447Z,264.13
2023-02-03T20:46:06.635Z,258.60
2023-02-03T20:48:11.810Z,247.57
2023-02-03T20:50:18.207Z,225.07
2023-02-03T20:52:22.376Z,238.20
2023-02-03T20:54:25.857Z,247.05
2023-02-03T20:56:29.216Z,265.60
2023-02-03T20:58:37.107Z,229.20
2023-02-03T21:00:40.630Z,224.65
2023-02-03T21:03:04.289Z,225.68
2023-02-03T21:05:24.687Z,220.60
2023-02-03T21:07:30.763Z,217.05
2023-02-03T21:09:34.308Z,225.95
2023-02-03T21:11:37.633Z,244.80
2023-02-03T21:13:41.381Z,229.85
2023-02-03T21:15:44.830Z,242.98
2023-02-03T21:17:49.698Z,262.52
2023-02-03T21:19:54.782Z,209.43
2023-02-03T21:21:58.501Z,131.80
2023-02-03T21:24:02.934Z,5.90
2023-02-03T21:26:17.507Z,8.23
2023-02-03T21:28:26.263Z,17.40
2023-02-03T21:30:33.044Z,5.40
2023-02-03T21:32:39.289Z,3.70
2023-02-03T21:34:45.156Z,4.17
2023-02-03T21:36:48.660Z,3.77
2023-02-03T21:38:54.774Z,4.93
2023-02-03T21:40:58.919Z,5.20
2023-02-03T21:43:03.342Z,3.70
2023-02-03T21:45:25.289Z,4.30
2023-02-03T21:47:28.760Z,3.30
2023-02-03T21:49:34.512Z,4.47
2023-02-03T21:51:40.140Z,2.90
2023-02-03T21:53:48.732Z,3.97
2023-02-03T21:55:52.094Z,3.67
2023-02-03T21:57:55.666Z,4.97
2023-02-03T21:59:59.039Z,4.10
2023-02-03T22:02:03.449Z,4.33
2023-02-03T22:04:07.702Z,4.83
2023-02-03T22:06:19.826Z,4.33
2023-02-03T22:08:24.861Z,24.00
2023-02-03T22:10:28.673Z,4.57
2023-02-03T22:12:32.148Z,3.60
2023-02-03T22:14:35.519Z,3.60
2023-02-03T22:16:39.035Z,20.17
2023-02-03T22:18:42.547Z,341.90
2023-02-03T22:20:45.902Z,332.80
2023-02-03T22:22:49.457Z,213.37
2023-02-03T22:24:54.164Z,3.10
2023-02-03T22:27:00.216Z,4.73
2023-02-03T22:29:03.630Z,3.73
2023-02-03T22:31:07.659Z,2.83
2023-02-03T22:33:11.394Z,3.17
2023-02-03T22:35:14.726Z,3.50
2023-02-03T22:37:18.150Z,2.60
2023-02-03T22:39:21.597Z,4.70
2023-02-03T22:41:26.274Z,4.73
2023-02-03T22:43:31.244Z,4.30
2023-02-03T22:45:34.649Z,4.03
2023-02-03T22:47:38.153Z,5.40
2023-02-03T22:49:42.136Z,4.10
2023-02-03T22:51:45.716Z,4.00
2023-02-03T22:53:49.333Z,3.13
2023-02-03T22:55:52.722Z,5.00
2023-02-03T22:57:57.608Z,2.60
2023-02-03T23:00:00.984Z,6.43
2023-02-03T23:02:04.338Z,4.60
2023-02-03T23:04:07.673Z,4.70
2023-02-03T23:06:11.480Z,4.37
2023-02-03T23:08:14.857Z,6.20
2023-02-03T23:10:20.797Z,3.30
2023-02-03T23:12:24.114Z,7.13
2023-02-03T23:14:29.463Z,4.53
2023-02-03T23:16:32.786Z,54.03
2023-02-03T23:18:36.080Z,2.70
2023-02-03T23:20:39.499Z,3.40
2023-02-03T23:22:42.965Z,5.90
2023-02-03T23:24:46.395Z,4.77
2023-02-03T23:26:49.786Z,3.47
2023-02-03T23:28:53.200Z,2.97
2023-02-03T23:30:58.015Z,3.63
2023-02-03T23:33:01.412Z,3.97
2023-02-03T23:35:22.938Z,3.77
2023-02-03T23:37:26.530Z,2.87
2023-02-03T23:39:30.330Z,2.63
2023-02-03T23:41:33.686Z,3.47
2023-02-03T23:43:37.154Z,2.93
2023-02-03T23:45:40.868Z,3.40
2023-02-03T23:47:47.173Z,3.20
2023-02-03T23:49:50.626Z,3.80
2023-02-03T23:51:54.385Z,4.80
2023-02-03T23:53:57.637Z,5.57
2023-02-03T23:56:01.866Z,28.97
2023-02-03T23:58:05.953Z,50.57
